Cfl Performer — PHLY — position and weather

sailwx.info

Track history (hours):
 
Tides and Currents Weather Stations Pressure Air Temp Water Temp Dewpoint Dewpoint Depression Visibility Wind Speed Wind Dir Waves Ship Positions

Cfl Performer

Last reported at 2017-Sep-19 20:11 UTC. Time now 2017-Sep-19 22:31 UTC.
Position N 36°04' W 006°36'.

Length 117 m; draft 6.3 m.

Type: Cargo ship. MMSI: 244989000.

Date/timePositionNaut miles runAvg speedWind from/ knotsBaromVisibWave heightAir tempDewpointWater temp
2017-Sep-19 20:11N 36°04' W 006°36'3 9.4
2017-Sep-19 19:54N 36°03' W 006°33'45 7.6
2017-Sep-19 14:00N 35°58' W 005°37'4 7.9
2017-Sep-19 13:30N 35°59' W 005°33'4 7.7
2017-Sep-19 13:00N 35°60' W 005°28'4 7.3
2017-Sep-19 12:30N 36°01' W 005°24'4 7.0
2017-Sep-19 12:00N 36°01' W 005°20'4 7.5
2017-Sep-19 11:30N 36°02' W 005°15'301 8.4
2017-Sep-17 23:28N 36°49' E 000°55'426 9.4
2017-Sep-16 02:22N 37°38' E 009°46'4 9.1
2017-Sep-16 01:57N 37°38' E 009°51'6 8.9
2017-Sep-16 01:19N 37°38' E 009°58'13 8.8
2017-Sep-15 23:50N 37°38' E 010°14'3 8.8
2017-Sep-15 23:30N 37°37' E 010°18'4 9.0
2017-Sep-15 23:00N 37°36' E 010°23'5 9.1
2017-Sep-15 22:30N 37°35' E 010°29'4 9.0
2017-Sep-15 22:00N 37°34' E 010°34'5 9.3
2017-Sep-15 21:26N 37°33' E 010°41'4 9.4
2017-Sep-15 21:00N 37°32' E 010°46'5 9.5
2017-Sep-15 20:30N 37°31' E 010°52'5 9.6
2017-Sep-15 20:00N 37°29' E 010°58'5 9.8
2017-Sep-15 19:30N 37°28' E 011°04'5 9.9
2017-Sep-15 19:00N 37°27' E 011°10'610.2
2017-Sep-15 18:25N 37°25' E 011°17'410.1
2017-Sep-15 18:00N 37°24' E 011°22'510.1
2017-Sep-15 17:30N 37°22' E 011°28'510.3
2017-Sep-15 17:00N 37°20' E 011°34'510.3
2017-Sep-15 16:28N 37°18' E 011°40'1510.3
2017-Sep-15 15:02N 37°13' E 011°58'010.1
2017-Sep-15 15:01N 37°13' E 011°58'510.2
2017-Sep-15 14:30N 37°11' E 012°04'510.0
2017-Sep-15 14:00N 37°10' E 012°10'510.0
2017-Sep-15 13:28N 37°08' E 012°16'1510.0
2017-Sep-15 11:58N 37°03' E 012°34'5 9.7
2017-Sep-15 11:25N 37°01' E 012°40'810.0
2017-Sep-15 10:38N 36°58' E 012°49'210.0
2017-Sep-15 10:29N 36°58' E 012°51'510.1
2017-Sep-15 09:57N 36°56' E 012°57'610.0
2017-Sep-15 09:21N 36°54' E 013°04'410.2
2017-Sep-15 09:00N 36°53' E 013°09'610.0
2017-Sep-15 08:26N 36°51' E 013°15'4 9.9
2017-Sep-15 08:00N 36°49' E 013°20'5 9.9
2017-Sep-15 07:30N 36°48' E 013°26'5 9.9
2017-Sep-15 07:00N 36°46' E 013°32'5 9.7
2017-Sep-15 06:28N 36°44' E 013°38'5 9.6
2017-Sep-15 05:55N 36°42' E 013°44'4 9.5
2017-Sep-15 05:29N 36°41' E 013°49'4 9.3
2017-Sep-15 05:00N 36°39' E 013°54'5 9.2
2017-Sep-15 04:30N 36°38' E 013°60'5 9.4
2017-Sep-15 04:00N 36°36' E 014°05'5 9.6
2017-Sep-15 03:30N 36°34' E 014°11'5 9.5
2017-Sep-15 03:00N 36°33' E 014°16'5 9.6
2017-Sep-15 02:30N 36°31' E 014°22'5 9.6
2017-Sep-15 02:00N 36°30' E 014°28'5 9.6
2017-Sep-15 01:30N 36°28' E 014°33'5 9.4
2017-Sep-15 01:00N 36°27' E 014°39'5 9.2
2017-Sep-15 00:30N 36°27' E 014°45'5 9.0
2017-Sep-15 00:00N 36°27' E 014°50'4 9.1
2017-Sep-14 23:30N 36°27' E 014°56'5 9.1
2017-Sep-14 23:00N 36°26' E 015°02'5 9.2
2017-Sep-14 22:30N 36°26' E 015°07'5 9.6
2017-Sep-14 22:00N 36°26' E 015°13'510.2
2017-Sep-14 21:30N 36°26' E 015°20'510.1
2017-Sep-14 21:00N 36°26' E 015°26'5 9.9
2017-Sep-14 20:30N 36°25' E 015°32'5 9.8
2017-Sep-14 20:00N 36°25' E 015°38'  
2017-Sep-11 16:46N 35°53' E 030°22'3 9.8
2017-Sep-11 16:30N 35°53' E 030°25'5 9.4
2017-Sep-11 16:00N 35°53' E 030°31'5 9.5
2017-Sep-11 15:29N 35°53' E 030°37'5 9.7
2017-Sep-11 15:00N 35°53' E 030°43'510.0
2017-Sep-11 14:30N 35°53' E 030°49'510.1
2017-Sep-11 14:00N 35°53' E 030°55'510.2
2017-Sep-11 13:30N 35°54' E 031°01'5 9.7
2017-Sep-11 13:00N 35°54' E 031°07'5 9.9
2017-Sep-11 12:29N 35°54' E 031°14'5 9.9
2017-Sep-11 12:00N 35°54' E 031°19'5 9.8
2017-Sep-11 11:30N 35°54' E 031°25'5 9.9
2017-Sep-11 11:00N 35°54' E 031°32'5 9.9
2017-Sep-11 10:30N 35°54' E 031°38'5 9.9
2017-Sep-11 10:00N 35°54' E 031°44'5 9.8
2017-Sep-11 09:29N 35°54' E 031°50'5 9.9
2017-Sep-11 09:00N 35°55' E 031°56'5 9.9
2017-Sep-11 08:30N 35°55' E 032°02'510.0
2017-Sep-11 08:00N 35°55' E 032°08'510.2
2017-Sep-11 07:30N 35°55' E 032°15'510.0
2017-Sep-11 07:00N 35°55' E 032°21'510.0
2017-Sep-11 06:30N 35°55' E 032°27'510.1
2017-Sep-11 06:00N 35°55' E 032°33'510.0
2017-Sep-11 05:30N 35°55' E 032°39'510.2
2017-Sep-11 04:59N 35°55' E 032°46'  
Track history (hours):
 
Tides and Currents Weather Stations Pressure Air Temp Water Temp Dewpoint Dewpoint Depression Visibility Wind Speed Wind Dir Waves Ship Positions

Cfl Performer

Last reported at 2017-Sep-19 20:11 UTC. Time now 2017-Sep-19 22:31 UTC.
Position N 36°04' W 006°36'.

Length 117 m; draft 6.3 m.

Type: Cargo ship. MMSI: 244989000.

Date/timePositionNaut miles runAvg speedWind from/ knotsBaromVisibWave heightAir tempDewpointWater temp
2017-Sep-19 20:11N 36°04' W 006°36'3 9.4
2017-Sep-19 19:54N 36°03' W 006°33'45 7.6
2017-Sep-19 14:00N 35°58' W 005°37'4 7.9
2017-Sep-19 13:30N 35°59' W 005°33'4 7.7
2017-Sep-19 13:00N 35°60' W 005°28'4 7.3
2017-Sep-19 12:30N 36°01' W 005°24'4 7.0
2017-Sep-19 12:00N 36°01' W 005°20'4 7.5
2017-Sep-19 11:30N 36°02' W 005°15'301 8.4
2017-Sep-17 23:28N 36°49' E 000°55'426 9.4
2017-Sep-16 02:22N 37°38' E 009°46'4 9.1
2017-Sep-16 01:57N 37°38' E 009°51'6 8.9
2017-Sep-16 01:19N 37°38' E 009°58'13 8.8
2017-Sep-15 23:50N 37°38' E 010°14'3 8.8
2017-Sep-15 23:30N 37°37' E 010°18'4 9.0
2017-Sep-15 23:00N 37°36' E 010°23'5 9.1
2017-Sep-15 22:30N 37°35' E 010°29'4 9.0
2017-Sep-15 22:00N 37°34' E 010°34'5 9.3
2017-Sep-15 21:26N 37°33' E 010°41'4 9.4
2017-Sep-15 21:00N 37°32' E 010°46'5 9.5
2017-Sep-15 20:30N 37°31' E 010°52'5 9.6
2017-Sep-15 20:00N 37°29' E 010°58'5 9.8
2017-Sep-15 19:30N 37°28' E 011°04'5 9.9
2017-Sep-15 19:00N 37°27' E 011°10'610.2
2017-Sep-15 18:25N 37°25' E 011°17'410.1
2017-Sep-15 18:00N 37°24' E 011°22'510.1
2017-Sep-15 17:30N 37°22' E 011°28'510.3
2017-Sep-15 17:00N 37°20' E 011°34'510.3
2017-Sep-15 16:28N 37°18' E 011°40'1510.3
2017-Sep-15 15:02N 37°13' E 011°58'010.1
2017-Sep-15 15:01N 37°13' E 011°58'510.2
2017-Sep-15 14:30N 37°11' E 012°04'510.0
2017-Sep-15 14:00N 37°10' E 012°10'510.0
2017-Sep-15 13:28N 37°08' E 012°16'1510.0
2017-Sep-15 11:58N 37°03' E 012°34'5 9.7
2017-Sep-15 11:25N 37°01' E 012°40'810.0
2017-Sep-15 10:38N 36°58' E 012°49'210.0
2017-Sep-15 10:29N 36°58' E 012°51'510.1
2017-Sep-15 09:57N 36°56' E 012°57'610.0
2017-Sep-15 09:21N 36°54' E 013°04'410.2
2017-Sep-15 09:00N 36°53' E 013°09'610.0
2017-Sep-15 08:26N 36°51' E 013°15'4 9.9
2017-Sep-15 08:00N 36°49' E 013°20'5 9.9
2017-Sep-15 07:30N 36°48' E 013°26'5 9.9
2017-Sep-15 07:00N 36°46' E 013°32'5 9.7
2017-Sep-15 06:28N 36°44' E 013°38'5 9.6
2017-Sep-15 05:55N 36°42' E 013°44'4 9.5
2017-Sep-15 05:29N 36°41' E 013°49'4 9.3
2017-Sep-15 05:00N 36°39' E 013°54'5 9.2
2017-Sep-15 04:30N 36°38' E 013°60'5 9.4
2017-Sep-15 04:00N 36°36' E 014°05'5 9.6
2017-Sep-15 03:30N 36°34' E 014°11'5 9.5
2017-Sep-15 03:00N 36°33' E 014°16'5 9.6
2017-Sep-15 02:30N 36°31' E 014°22'5 9.6
2017-Sep-15 02:00N 36°30' E 014°28'5 9.6
2017-Sep-15 01:30N 36°28' E 014°33'5 9.4
2017-Sep-15 01:00N 36°27' E 014°39'5 9.2
2017-Sep-15 00:30N 36°27' E 014°45'5 9.0
2017-Sep-15 00:00N 36°27' E 014°50'4 9.1
2017-Sep-14 23:30N 36°27' E 014°56'5 9.1
2017-Sep-14 23:00N 36°26' E 015°02'5 9.2
2017-Sep-14 22:30N 36°26' E 015°07'5 9.6
2017-Sep-14 22:00N 36°26' E 015°13'510.2
2017-Sep-14 21:30N 36°26' E 015°20'510.1
2017-Sep-14 21:00N 36°26' E 015°26'5 9.9
2017-Sep-14 20:30N 36°25' E 015°32'5 9.8
2017-Sep-14 20:00N 36°25' E 015°38'  
2017-Sep-11 16:46N 35°53' E 030°22'3 9.8
2017-Sep-11 16:30N 35°53' E 030°25'5 9.4
2017-Sep-11 16:00N 35°53' E 030°31'5 9.5
2017-Sep-11 15:29N 35°53' E 030°37'5 9.7
2017-Sep-11 15:00N 35°53' E 030°43'510.0
2017-Sep-11 14:30N 35°53' E 030°49'510.1
2017-Sep-11 14:00N 35°53' E 030°55'510.2
2017-Sep-11 13:30N 35°54' E 031°01'5 9.7
2017-Sep-11 13:00N 35°54' E 031°07'5 9.9
2017-Sep-11 12:29N 35°54' E 031°14'5 9.9
2017-Sep-11 12:00N 35°54' E 031°19'5 9.8
2017-Sep-11 11:30N 35°54' E 031°25'5 9.9
2017-Sep-11 11:00N 35°54' E 031°32'5 9.9
2017-Sep-11 10:30N 35°54' E 031°38'5 9.9
2017-Sep-11 10:00N 35°54' E 031°44'5 9.8
2017-Sep-11 09:29N 35°54' E 031°50'5 9.9
2017-Sep-11 09:00N 35°55' E 031°56'5 9.9
2017-Sep-11 08:30N 35°55' E 032°02'510.0
2017-Sep-11 08:00N 35°55' E 032°08'510.2
2017-Sep-11 07:30N 35°55' E 032°15'510.0
2017-Sep-11 07:00N 35°55' E 032°21'510.0
2017-Sep-11 06:30N 35°55' E 032°27'510.1
2017-Sep-11 06:00N 35°55' E 032°33'510.0
2017-Sep-11 05:30N 35°55' E 032°39'510.2
2017-Sep-11 04:59N 35°55' E 032°46'  

Dump ship's entire track history